createdAt,value
2019-02-07T00:01:21.448Z,14.00
2019-02-07T00:03:50.765Z,13.48
2019-02-07T00:06:20.072Z,13.53
2019-02-07T00:08:49.321Z,13.28
2019-02-07T00:11:18.563Z,13.18
2019-02-07T00:13:48.044Z,12.93
2019-02-07T00:16:17.295Z,13.40
2019-02-07T00:18:46.529Z,13.50
2019-02-07T00:21:15.772Z,13.00
2019-02-07T00:23:45.027Z,13.08
2019-02-07T00:26:14.299Z,12.73
2019-02-07T00:28:43.548Z,12.65
2019-02-07T00:31:12.865Z,13.37
2019-02-07T00:33:42.071Z,12.78
2019-02-07T00:36:11.298Z,12.40
2019-02-07T00:38:40.570Z,12.47
2019-02-07T00:41:09.796Z,12.43
2019-02-07T00:43:39.105Z,12.70
2019-02-07T00:46:08.339Z,12.80
2019-02-07T00:48:38.194Z,12.30
2019-02-07T00:51:07.468Z,12.18
2019-02-07T00:53:37.862Z,12.75
2019-02-07T00:56:07.154Z,12.25
2019-02-07T00:58:36.427Z,12.98
2019-02-07T01:01:05.933Z,12.13
2019-02-07T01:03:35.209Z,12.35
2019-02-07T01:06:04.707Z,12.20
2019-02-07T01:08:33.962Z,12.45
2019-02-07T01:11:04.146Z,12.40
2019-02-07T01:13:33.454Z,11.63
2019-02-07T01:16:03.089Z,12.00
2019-02-07T01:18:32.299Z,12.07
2019-02-07T01:21:01.498Z,11.68
2019-02-07T01:23:30.749Z,11.35
2019-02-07T01:25:59.995Z,11.60
2019-02-07T01:28:29.200Z,12.05
2019-02-07T01:30:58.837Z,12.20
2019-02-07T01:33:28.087Z,11.70
2019-02-07T01:35:57.318Z,12.60
2019-02-07T01:38:26.531Z,12.00
2019-02-07T01:40:55.842Z,13.15
2019-02-07T01:43:25.072Z,13.45
2019-02-07T01:45:54.587Z,13.78
2019-02-07T01:48:23.796Z,14.60
2019-02-07T01:50:53.082Z,15.75
2019-02-07T01:53:22.298Z,15.23
2019-02-07T01:55:51.579Z,15.28
2019-02-07T01:58:20.781Z,15.35
2019-02-07T02:00:50.014Z,16.55
2019-02-07T02:03:19.254Z,16.27
2019-02-07T02:05:48.746Z,16.00
2019-02-07T02:08:17.947Z,16.37
2019-02-07T02:10:47.205Z,15.83
2019-02-07T02:13:16.452Z,15.78
2019-02-07T02:15:45.757Z,16.87
2019-02-07T02:18:14.963Z,16.00
2019-02-07T02:20:44.274Z,16.60
2019-02-07T02:23:13.478Z,16.00
2019-02-07T02:25:42.725Z,15.80
2019-02-07T02:28:11.946Z,14.47
2019-02-07T02:30:41.152Z,14.93
2019-02-07T02:33:10.418Z,14.95
2019-02-07T02:35:39.663Z,15.43
2019-02-07T02:38:08.868Z,14.66
2019-02-07T02:40:38.123Z,15.00
2019-02-07T02:43:07.328Z,14.85
2019-02-07T02:45:37.881Z,14.53
2019-02-07T02:48:07.367Z,14.40
2019-02-07T02:50:36.607Z,13.78
2019-02-07T02:53:05.836Z,12.47
2019-02-07T02:55:39.842Z,12.63
2019-02-07T02:58:09.083Z,10.90
2019-02-07T03:00:40.454Z,10.35
2019-02-07T03:03:27.513Z,9.77
2019-02-07T03:06:00.807Z,9.78
2019-02-07T03:08:37.682Z,10.10
2019-02-07T03:11:08.587Z,9.95
2019-02-07T03:13:55.943Z,9.65
2019-02-07T03:16:38.756Z,9.33
2019-02-07T03:19:09.643Z,9.20
2019-02-07T03:21:55.470Z,8.88
2019-02-07T03:24:42.674Z,9.45
2019-02-07T03:27:28.804Z,9.43
2019-02-07T03:29:59.675Z,9.23
2019-02-07T03:32:42.828Z,8.58
2019-02-07T03:35:30.368Z,9.20
2019-02-07T03:38:01.208Z,9.63
2019-02-07T03:40:48.343Z,9.75
2019-02-07T03:43:35.571Z,8.55
2019-02-07T03:46:06.630Z,8.40
2019-02-07T03:48:43.400Z,8.10
2019-02-07T03:51:23.558Z,9.00
2019-02-07T03:53:54.449Z,8.03
2019-02-07T03:56:28.244Z,8.70
2019-02-07T03:59:17.221Z,8.48
2019-02-07T04:01:50.841Z,7.90
2019-02-07T04:04:21.695Z,8.10
2019-02-07T04:07:08.996Z,8.13
2019-02-07T04:09:56.042Z,7.90
2019-02-07T04:12:43.153Z,8.15
2019-02-07T04:15:16.991Z,8.08
2019-02-07T04:18:05.923Z,8.75
2019-02-07T04:20:39.436Z,8.43
2019-02-07T04:23:10.337Z,7.80
2019-02-07T04:25:57.047Z,7.75
2019-02-07T04:28:44.288Z,7.25
2019-02-07T04:31:30.180Z,7.67
2019-02-07T04:34:01.021Z,7.85
2019-02-07T04:36:31.923Z,7.72
2019-02-07T04:39:19.182Z,7.85
2019-02-07T04:42:06.334Z,7.55
2019-02-07T04:44:39.889Z,7.65
2019-02-07T04:47:10.933Z,7.87
2019-02-07T04:49:45.694Z,7.80
2019-02-07T04:52:33.273Z,7.97
2019-02-07T04:55:07.025Z,7.25
2019-02-07T04:57:50.130Z,7.80
2019-02-07T05:00:26.683Z,8.15
2019-02-07T05:03:00.184Z,7.55
2019-02-07T05:05:37.102Z,7.62
2019-02-07T05:08:13.625Z,7.67
2019-02-07T05:10:47.396Z,8.15
2019-02-07T05:13:30.363Z,8.00
2019-02-07T05:16:04.222Z,8.43
2019-02-07T05:18:38.285Z,8.03
2019-02-07T05:21:11.859Z,7.78
2019-02-07T05:23:51.944Z,8.65
2019-02-07T05:26:23.312Z,9.00
2019-02-07T05:28:54.154Z,8.65
2019-02-07T05:31:25.023Z,9.58
2019-02-07T05:34:01.836Z,8.68
2019-02-07T05:36:47.743Z,8.70
2019-02-07T05:39:21.459Z,8.95
2019-02-07T05:41:58.048Z,9.30
2019-02-07T05:44:44.041Z,10.45
2019-02-07T05:47:17.495Z,9.40
2019-02-07T05:50:03.416Z,10.23
2019-02-07T05:52:40.065Z,9.68
2019-02-07T05:55:14.161Z,9.80
2019-02-07T05:57:45.167Z,8.95
2019-02-07T06:00:16.022Z,9.35
2019-02-07T06:02:46.875Z,8.45
2019-02-07T06:05:34.121Z,8.33
2019-02-07T06:10:45.084Z,8.30
2019-02-07T06:13:32.563Z,8.83
2019-02-07T06:16:06.119Z,8.48
2019-02-07T06:18:36.954Z,7.92
2019-02-07T06:21:13.616Z,8.10
2019-02-07T06:24:00.728Z,7.95
2019-02-07T06:26:31.616Z,7.92
2019-02-07T06:29:18.621Z,8.68
2019-02-07T06:31:52.171Z,9.05
2019-02-07T06:34:41.282Z,8.45
2019-02-07T06:37:14.742Z,9.23
2019-02-07T06:39:57.862Z,8.95
2019-02-07T06:42:44.875Z,9.25
2019-02-07T06:45:15.748Z,9.00
2019-02-07T06:47:52.536Z,9.80
2019-02-07T06:50:39.570Z,9.00
2019-02-07T06:53:13.378Z,9.00
2019-02-07T06:55:49.817Z,9.53
2019-02-07T06:58:35.885Z,9.38
2019-02-07T07:01:12.860Z,10.10
2019-02-07T07:03:49.712Z,9.40
2019-02-07T07:06:27.945Z,10.78
2019-02-07T07:08:58.834Z,10.27
2019-02-07T07:11:29.721Z,9.58
2019-02-07T07:14:03.307Z,8.95
2019-02-07T07:16:34.129Z,9.53
2019-02-07T07:19:08.353Z,8.83
2019-02-07T07:21:39.240Z,8.30
2019-02-07T07:24:10.249Z,8.10
2019-02-07T07:26:57.096Z,8.38
2019-02-07T07:29:44.523Z,8.85
2019-02-07T07:32:31.749Z,8.00
2019-02-07T07:35:20.866Z,8.18
2019-02-07T07:38:06.768Z,7.80
2019-02-07T07:40:40.976Z,8.15
2019-02-07T07:43:30.421Z,7.85
2019-02-07T07:46:01.031Z,8.10
2019-02-07T07:48:31.856Z,8.38
2019-02-07T07:51:20.964Z,7.72
2019-02-07T07:53:51.872Z,8.18
2019-02-07T07:56:40.599Z,8.60
2019-02-07T07:59:27.461Z,7.58
2019-02-07T08:02:10.602Z,8.58
2019-02-07T08:04:44.194Z,7.90
2019-02-07T08:07:20.887Z,8.00
2019-02-07T08:09:54.929Z,7.78
2019-02-07T08:12:38.054Z,7.70
2019-02-07T08:15:15.345Z,7.50
2019-02-07T08:17:47.721Z,7.30
2019-02-07T08:20:18.755Z,7.40
2019-02-07T08:23:07.919Z,6.53
2019-02-07T08:25:38.870Z,7.00
2019-02-07T08:28:13.018Z,7.20
2019-02-07T08:30:43.831Z,6.83
2019-02-07T08:33:20.711Z,6.97
2019-02-07T08:35:57.283Z,6.97
2019-02-07T08:38:33.886Z,6.90
2019-02-07T08:41:08.464Z,7.90
2019-02-07T08:43:39.358Z,8.08
2019-02-07T08:46:12.981Z,8.66
2019-02-07T08:48:52.876Z,8.15
2019-02-07T08:51:23.762Z,9.60
2019-02-07T08:54:00.596Z,10.03
2019-02-07T08:56:37.215Z,10.05
2019-02-07T08:59:20.533Z,10.03
2019-02-07T09:01:57.560Z,10.48
2019-02-07T09:04:37.625Z,10.82
2019-02-07T09:07:08.642Z,11.22
2019-02-07T09:09:42.492Z,11.05
2019-02-07T09:12:22.150Z,11.38
2019-02-07T09:14:55.717Z,10.70
2019-02-07T09:17:41.867Z,11.15
2019-02-07T09:20:19.300Z,11.63
2019-02-07T09:23:02.486Z,11.83
2019-02-07T09:28:31.883Z,11.70
2019-02-07T09:31:05.686Z,11.95
2019-02-07T09:33:52.697Z,11.48
2019-02-07T09:36:26.803Z,12.65
2019-02-07T09:39:14.324Z,12.47
2019-02-07T09:41:50.889Z,12.73
2019-02-07T09:44:38.001Z,12.17
2019-02-07T09:47:14.629Z,12.65
2019-02-07T09:50:01.685Z,13.20
2019-02-07T09:52:49.020Z,12.63
2019-02-07T09:55:31.917Z,13.00
2019-02-07T09:58:11.760Z,13.20
2019-02-07T10:00:58.862Z,14.15
2019-02-07T10:03:32.701Z,14.75
2019-02-07T10:06:06.456Z,13.68
2019-02-07T10:08:43.380Z,15.45
2019-02-07T10:11:14.294Z,14.85
2019-02-07T10:13:50.859Z,14.45
2019-02-07T10:16:30.897Z,15.47
2019-02-07T10:19:18.371Z,15.05
2019-02-07T10:22:01.207Z,14.68
2019-02-07T10:24:50.118Z,15.18
2019-02-07T10:27:29.854Z,15.78
2019-02-07T10:30:00.775Z,15.50
2019-02-07T10:32:34.379Z,15.93
2019-02-07T10:35:10.646Z,15.70
2019-02-07T10:37:44.223Z,14.75
2019-02-07T10:40:25.819Z,15.98
2019-02-07T10:42:56.664Z,16.10
2019-02-07T10:45:36.924Z,16.30
2019-02-07T10:48:10.529Z,16.67
2019-02-07T10:50:57.537Z,16.75
2019-02-07T10:53:28.747Z,18.57
2019-02-07T10:56:15.880Z,19.05
2019-02-07T10:58:49.712Z,19.15
2019-02-07T11:01:35.836Z,19.00
2019-02-07T11:04:13.099Z,19.42
2019-02-07T11:06:52.897Z,19.70
2019-02-07T11:09:26.509Z,18.87
2019-02-07T11:12:09.633Z,18.85
2019-02-07T11:14:56.661Z,20.02
2019-02-07T11:17:36.580Z,18.45
2019-02-07T11:20:16.390Z,19.62
2019-02-07T11:22:53.243Z,19.35
2019-02-07T11:25:29.809Z,19.30
2019-02-07T11:28:10.205Z,19.42
2019-02-07T11:30:50.742Z,19.80
2019-02-07T11:33:21.615Z,18.98
2019-02-07T11:36:09.071Z,19.82
2019-02-07T11:38:39.924Z,19.15
2019-02-07T11:41:26.124Z,18.98
2019-02-07T11:43:58.104Z,18.67
2019-02-07T11:46:45.499Z,19.32
2019-02-07T11:49:22.113Z,18.55
2019-02-07T11:51:59.234Z,19.30
2019-02-07T11:54:30.080Z,19.55
2019-02-07T11:57:12.708Z,19.50
2019-02-07T12:00:00.198Z,19.32
2019-02-07T12:02:31.103Z,18.67
2019-02-07T12:05:04.947Z,19.17
2019-02-07T12:07:35.856Z,19.80
2019-02-07T12:10:12.897Z,19.63
2019-02-07T12:12:43.760Z,20.43
2019-02-07T12:15:17.866Z,20.25
2019-02-07T12:17:54.970Z,20.17
2019-02-07T12:20:25.842Z,19.73
2019-02-07T12:23:02.413Z,20.85
2019-02-07T12:25:49.388Z,20.68
2019-02-07T12:28:38.299Z,19.77
2019-02-07T12:31:25.083Z,21.42
2019-02-07T12:33:56.317Z,20.75
2019-02-07T12:36:27.175Z,20.35
2019-02-07T12:39:06.746Z,20.15
2019-02-07T12:41:38.586Z,20.65
2019-02-07T12:44:14.996Z,20.88
2019-02-07T12:46:54.983Z,20.17
2019-02-07T12:49:29.293Z,20.55
2019-02-07T12:52:01.602Z,21.23
2019-02-07T12:54:38.693Z,21.68
2019-02-07T12:57:26.481Z,21.00
2019-02-07T13:00:13.649Z,21.07
2019-02-07T13:02:56.727Z,20.90
2019-02-07T13:05:39.673Z,21.40
2019-02-07T13:08:26.781Z,20.20
2019-02-07T13:11:03.445Z,21.10
2019-02-07T13:13:34.384Z,20.12
2019-02-07T13:16:11.929Z,22.42
2019-02-07T13:18:45.484Z,21.37
2019-02-07T13:21:16.353Z,22.30
2019-02-07T13:23:53.207Z,22.58
2019-02-07T13:26:32.996Z,24.20
2019-02-07T13:29:09.281Z,28.45
2019-02-07T13:31:40.484Z,28.12
2019-02-07T13:34:14.115Z,25.30
2019-02-07T13:36:51.048Z,21.87
2019-02-07T13:39:27.720Z,22.00
2019-02-07T13:42:08.061Z,21.02
2019-02-07T13:44:38.943Z,20.27
2019-02-07T13:47:09.781Z,20.78
2019-02-07T13:49:51.613Z,20.30
2019-02-07T13:52:32.626Z,21.12
2019-02-07T13:55:05.886Z,20.50
2019-02-07T13:57:48.900Z,20.60
2019-02-07T14:00:20.016Z,19.57
2019-02-07T14:02:51.021Z,21.80
2019-02-07T14:05:38.599Z,19.55
2019-02-07T14:08:14.814Z,20.37
2019-02-07T14:10:45.692Z,19.50
2019-02-07T14:13:25.282Z,19.92
2019-02-07T14:15:56.185Z,20.90
2019-02-07T14:18:35.839Z,19.77
2019-02-07T14:21:06.688Z,21.73
2019-02-07T14:23:37.584Z,21.65
2019-02-07T14:26:24.927Z,20.70
2019-02-07T14:29:08.194Z,21.12
2019-02-07T14:31:39.041Z,20.65
2019-02-07T14:34:11.447Z,22.37
2019-02-07T14:36:54.469Z,21.52
2019-02-07T14:39:41.535Z,22.13
2019-02-07T14:42:15.052Z,23.95
2019-02-07T14:44:45.939Z,26.00
2019-02-07T14:47:15.198Z,26.37
2019-02-07T14:49:44.445Z,24.02
2019-02-07T14:52:14.120Z,25.72
2019-02-07T14:54:43.361Z,23.60
2019-02-07T14:57:12.559Z,24.07
2019-02-07T14:59:42.127Z,23.87
2019-02-07T15:02:11.471Z,23.62
2019-02-07T15:04:40.719Z,24.98
2019-02-07T15:07:10.058Z,25.32
2019-02-07T15:09:39.267Z,25.80
2019-02-07T15:12:08.497Z,25.02
2019-02-07T15:14:37.765Z,24.50
2019-02-07T15:17:07.009Z,24.23
2019-02-07T15:19:36.288Z,24.20
2019-02-07T15:22:05.544Z,24.63
2019-02-07T15:24:34.797Z,24.43
2019-02-07T15:27:04.223Z,21.87
2019-02-07T15:29:33.490Z,22.95
2019-02-07T15:32:02.688Z,22.58
2019-02-07T15:34:31.983Z,23.60
2019-02-07T15:37:01.228Z,22.32
2019-02-07T15:39:30.424Z,22.75
2019-02-07T15:41:59.620Z,21.90
2019-02-07T15:44:28.862Z,22.02
2019-02-07T15:46:58.115Z,22.90
2019-02-07T15:49:27.643Z,21.82
2019-02-07T15:51:57.065Z,22.40
2019-02-07T15:54:26.399Z,21.90
2019-02-07T15:56:55.612Z,24.23
2019-02-07T15:59:26.618Z,23.30
2019-02-07T16:01:57.461Z,22.37
2019-02-07T16:04:27.758Z,22.85
2019-02-07T16:06:56.942Z,21.77
2019-02-07T16:09:26.176Z,22.75
2019-02-07T16:11:55.684Z,22.65
2019-02-07T16:14:24.879Z,22.37
2019-02-07T16:19:52.539Z,20.75
2019-02-07T16:22:21.776Z,20.55
2019-02-07T16:24:51.041Z,20.17
2019-02-07T16:27:21.295Z,20.48
2019-02-07T16:29:50.572Z,20.30
2019-02-07T16:32:19.925Z,20.45
2019-02-07T16:34:49.210Z,19.73
2019-02-07T16:37:18.485Z,20.05
2019-02-07T16:39:50.816Z,20.00
2019-02-07T16:42:20.076Z,19.83
2019-02-07T16:44:49.622Z,20.27
2019-02-07T16:47:22.983Z,18.85
2019-02-07T16:49:52.543Z,20.32
2019-02-07T16:52:21.875Z,19.85
2019-02-07T16:54:51.341Z,19.98
2019-02-07T16:57:20.557Z,18.95
2019-02-07T16:59:49.798Z,20.75
2019-02-07T17:02:19.198Z,22.20
2019-02-07T17:04:48.423Z,24.55
2019-02-07T17:07:17.712Z,24.90
2019-02-07T17:09:47.114Z,25.23
2019-02-07T17:12:16.657Z,22.90
2019-02-07T17:14:46.290Z,22.42
2019-02-07T17:17:15.515Z,22.00
2019-02-07T17:19:44.920Z,21.40
2019-02-07T17:22:14.171Z,20.93
2019-02-07T17:24:43.671Z,19.95
2019-02-07T17:27:12.965Z,20.27
2019-02-07T17:29:42.179Z,20.80
2019-02-07T17:32:11.641Z,21.85
2019-02-07T17:34:40.974Z,20.45
2019-02-07T17:37:10.569Z,21.75
2019-02-07T17:39:39.825Z,20.60
2019-02-07T17:42:09.167Z,20.08
2019-02-07T17:44:38.388Z,20.60
2019-02-07T17:47:10.310Z,20.02
2019-02-07T17:49:38.761Z,20.32
2019-02-07T17:52:08.098Z,19.23
2019-02-07T17:54:37.305Z,18.65
2019-02-07T17:57:07.215Z,19.33
2019-02-07T17:59:36.857Z,18.57
2019-02-07T18:02:07.821Z,19.17
2019-02-07T18:04:37.216Z,18.90
2019-02-07T18:07:06.715Z,17.23
2019-02-07T18:09:35.906Z,17.73
2019-02-07T18:12:05.176Z,19.20
2019-02-07T18:14:34.380Z,20.17
2019-02-07T18:17:04.410Z,21.77
2019-02-07T18:19:33.755Z,21.57
2019-02-07T18:22:03.002Z,21.82
2019-02-07T18:24:32.356Z,22.13
2019-02-07T18:27:01.569Z,21.97
2019-02-07T18:29:31.142Z,24.65
2019-02-07T18:32:00.817Z,23.42
2019-02-07T18:34:30.022Z,23.67
2019-02-07T18:36:59.272Z,24.75
2019-02-07T18:39:30.784Z,22.98
2019-02-07T18:41:59.452Z,22.82
2019-02-07T18:44:28.703Z,21.48
2019-02-07T18:46:58.068Z,21.27
2019-02-07T18:49:27.267Z,21.60
2019-02-07T18:52:01.702Z,24.00
2019-02-07T18:54:31.378Z,23.70
2019-02-07T18:57:00.640Z,24.02
2019-02-07T18:59:29.895Z,23.95
2019-02-07T19:01:59.273Z,22.40
2019-02-07T19:04:28.482Z,22.50
2019-02-07T19:06:57.728Z,23.27
2019-02-07T19:09:26.928Z,23.02
2019-02-07T19:11:56.573Z,21.50
2019-02-07T19:14:25.828Z,22.87
2019-02-07T19:16:55.147Z,22.42
2019-02-07T19:19:24.340Z,21.05
2019-02-07T19:21:57.229Z,20.12
2019-02-07T19:24:24.567Z,18.87
2019-02-07T19:26:54.754Z,19.50
2019-02-07T19:29:24.087Z,19.05
2019-02-07T19:31:53.356Z,18.77
2019-02-07T19:34:22.606Z,18.37
2019-02-07T19:36:51.859Z,17.80
2019-02-07T19:39:21.232Z,18.13
2019-02-07T19:41:50.628Z,18.07
2019-02-07T19:44:19.877Z,17.92
2019-02-07T19:46:49.147Z,16.37
2019-02-07T19:49:18.353Z,16.02
2019-02-07T19:51:47.781Z,16.07
2019-02-07T19:54:16.991Z,15.55
2019-02-07T19:56:47.323Z,16.15
2019-02-07T19:59:17.600Z,15.53
2019-02-07T20:01:47.415Z,15.58
2019-02-07T20:04:16.626Z,14.90
2019-02-07T20:06:45.825Z,16.15
2019-02-07T20:09:15.082Z,17.00
2019-02-07T20:11:44.563Z,16.93
2019-02-07T20:14:13.813Z,17.62
2019-02-07T20:16:43.669Z,17.27
2019-02-07T20:19:12.907Z,17.62
2019-02-07T20:21:42.229Z,17.27
2019-02-07T20:24:12.006Z,18.27
2019-02-07T20:26:41.733Z,16.62
2019-02-07T20:29:11.208Z,17.23
2019-02-07T20:31:40.461Z,17.55
2019-02-07T20:34:09.706Z,17.15
2019-02-07T20:36:38.910Z,16.48
2019-02-07T20:39:08.304Z,16.52
2019-02-07T20:41:37.500Z,15.65
2019-02-07T20:44:06.745Z,15.53
2019-02-07T20:46:35.944Z,16.30
2019-02-07T20:49:05.188Z,16.27
2019-02-07T20:51:34.400Z,16.23
2019-02-07T20:54:04.251Z,15.60
2019-02-07T20:56:33.562Z,15.03
2019-02-07T20:59:02.860Z,15.18
2019-02-07T21:01:32.544Z,15.58
2019-02-07T21:04:02.334Z,15.03
2019-02-07T21:06:31.515Z,15.58
2019-02-07T21:09:00.937Z,14.50
2019-02-07T21:11:31.759Z,14.10
2019-02-07T21:14:01.019Z,15.23
2019-02-07T21:16:30.239Z,13.85
2019-02-07T21:18:59.521Z,13.72
2019-02-07T21:21:28.811Z,13.78
2019-02-07T21:23:58.363Z,13.65
2019-02-07T21:26:27.861Z,13.60
2019-02-07T21:28:57.114Z,13.98
2019-02-07T21:31:27.294Z,13.58
2019-02-07T21:33:56.997Z,13.75
2019-02-07T21:36:26.251Z,13.00
2019-02-07T21:38:55.492Z,13.45
2019-02-07T21:41:24.768Z,12.47
2019-02-07T21:43:53.978Z,13.58
2019-02-07T21:46:23.929Z,12.73
2019-02-07T21:48:54.042Z,12.68
2019-02-07T21:51:23.488Z,12.45
2019-02-07T21:53:52.748Z,12.15
2019-02-07T21:56:22.141Z,12.58
2019-02-07T21:58:51.994Z,12.00
2019-02-07T22:01:21.391Z,12.68
2019-02-07T22:03:50.642Z,12.65
2019-02-07T22:06:21.131Z,12.50
2019-02-07T22:08:50.634Z,12.90
2019-02-07T22:11:19.846Z,12.40
2019-02-07T22:13:49.124Z,13.70
2019-02-07T22:16:18.329Z,12.78
2019-02-07T22:18:47.637Z,13.98
2019-02-07T22:21:17.022Z,13.13
2019-02-07T22:23:46.330Z,13.32
2019-02-07T22:26:15.541Z,14.85
2019-02-07T22:28:44.789Z,14.30
2019-02-07T22:31:14.035Z,13.73
2019-02-07T22:33:43.686Z,14.45
2019-02-07T22:36:13.301Z,14.68
2019-02-07T22:38:42.544Z,13.90
2019-02-07T22:41:11.753Z,13.60
2019-02-07T22:43:40.996Z,14.38
2019-02-07T22:46:10.199Z,13.83
2019-02-07T22:48:39.493Z,14.15
2019-02-07T22:51:08.900Z,14.47
2019-02-07T22:53:38.142Z,13.77
2019-02-07T22:56:07.568Z,13.68
2019-02-07T22:58:36.856Z,13.55
2019-02-07T23:01:12.000Z,13.43
2019-02-07T23:03:41.311Z,13.40
2019-02-07T23:06:10.705Z,13.78
2019-02-07T23:08:39.912Z,12.90
2019-02-07T23:11:09.288Z,12.63
2019-02-07T23:13:38.538Z,12.50
2019-02-07T23:16:08.413Z,12.55
2019-02-07T23:18:37.722Z,12.28
2019-02-07T23:21:07.099Z,12.45
2019-02-07T23:23:36.644Z,12.13
2019-02-07T23:26:05.952Z,12.23
2019-02-07T23:28:35.198Z,11.07
2019-02-07T23:31:05.578Z,12.05
2019-02-07T23:33:34.846Z,11.33
2019-02-07T23:36:04.525Z,11.28
2019-02-07T23:38:33.751Z,11.38
2019-02-07T23:41:02.987Z,11.35
2019-02-07T23:43:32.195Z,10.85
2019-02-07T23:46:01.442Z,11.40
2019-02-07T23:48:30.647Z,11.75
2019-02-07T23:51:00.304Z,10.98
2019-02-07T23:53:29.554Z,10.80
2019-02-07T23:55:58.868Z,11.25
2019-02-07T23:58:28.069Z,10.60
